Terminal Aerodrome Forecast
Issued by NWS

Home | Current Version | Previous Version | Text Only | Print | Product List | Glossary On
Versions: 1 2 3 4 5 6 7 8 9 10 11 12 13 14 15 16 17 18 19 20 21 22 23 24 25 26
000
FTUS41 KBGM 181300 AAA
TAFITH
TAF AMD
KITH 181302Z 1813/1912 30012KT P6SM SCT015 OVC025
     FM181500 31012G20KT P6SM -SN OVC025
      TEMPO 1821/1901 2SM -SN OVC015
     FM190100 30008KT P6SM -SN OVC012=

USA.gov is the U.S. government's official web portal to all federal, state and local government web resources and services.